Terminal Aerodrome Forecast
Issued by NWS Duluth, MN

Home | Current Version | Previous Version | Graphics & Text | Print | Product List | Glossary On
Versions: 1 2 3 4 5 6 7 8 9 10 11 12 13 14 15 16 17 18 19 20 21 22 23 24 25 26 27 28 29 30 31
000
FTUS43 KDLH 020700 AAB
TAFDLH
TAF AMD
KDLH 020730Z 0208/0306 28012G23KT P6SM SCT030 BKN140
      TEMPO 0208/0209 BKN030
     FM021500 28014G22KT P6SM SKC
     FM021700 27017G30KT P6SM SCT035
     FM030100 29014G25KT P6SM SCT150
     FM030400 30014G25KT P6SM BKN035=

USA.gov is the U.S. government's official web portal to all federal, state and local government web resources and services.